Mount Walker, Washington
Current Conditions -  °F | °C
As of 2:15 PM on Friday 24 Oct 2014 (Local Time) from KPWT Reporting Station
Clear Clear  
Wind Chill: 54°   Ceiling: Unl
Heat Index: 54°   Visibility: 10mi
Dew Point: 48°   Wind: 7mph
Humidity: 82%   Direction: 20°NNE
Pressure: 29.99"   Gusts: NA
Location:  47.8412°N, 122.841°W
Report Text: KPWT 242115Z AUTO 02006KT 10SM CLR 12/09 A2999 RMK AO1
Loading
Personal Weather Stations






























Interactive Weather Map
Tropical Storm Tracking
New forecast layout! Learn more

10-Day Weather Forecast

Advertisements
Track Severe Weather on mobile